Time;durP1;ratioP1;P1;durP2;ratioP2;P2;SDS_P1;SDS_P2;PMS_P1;PMS_P2;Temp;Humidity;BMP_temperature;BMP_pressure;BME280_temperature;BME280_humidity;BME280_pressure;Samples;Min_cycle;Max_cycle;Signal;HPM_P1;HPM_P2
2023/05/27 00:02:03;;;;;;;9.70;7.10;;;;;;;20.68;53.40;99666.55;107120;1267;60602;-83
2023/05/27 00:04:31;;;;;;;7.00;6.30;;;;;;;20.62;53.44;99662.92;105742;1267;60507;-81
2023/05/27 00:06:58;;;;;;;7.50;6.80;;;;;;;20.57;53.52;99661.60;105353;1267;73117;-83
2023/05/27 00:09:27;;;;;;;9.20;7.20;;;;;;;20.53;53.59;99662.48;105295;1270;69223;-82
2023/05/27 00:11:55;;;;;;;7.50;6.30;;;;;;;20.48;53.72;99666.14;105350;1267;70612;-80
2023/05/27 00:14:24;;;;;;;9.00;6.90;;;;;;;20.43;53.79;99664.85;105319;1265;60560;-80
2023/05/27 00:16:51;;;;;;;7.50;6.60;;;;;;;20.39;53.85;99661.73;105512;1267;60497;-82
2023/05/27 00:19:19;;;;;;;7.80;6.60;;;;;;;20.35;54.00;99662.66;105540;1265;73327;-80
2023/05/27 00:21:47;;;;;;;9.50;6.70;;;;;;;20.31;53.93;99661.38;105397;1267;69086;-82
2023/05/27 00:24:14;;;;;;;8.80;7.50;;;;;;;20.26;54.20;99658.73;105225;1265;72841;-84
2023/05/27 00:26:42;;;;;;;8.10;6.90;;;;;;;20.20;54.20;99661.02;106380;1265;60356;-85
2023/05/27 00:29:10;;;;;;;8.90;7.20;;;;;;;20.12;54.44;99659.48;106691;1265;60571;-87
2023/05/27 00:31:41;;;;;;;7.50;6.80;;;;;;;20.04;54.65;99658.96;106061;1265;74135;-83
2023/05/27 00:34:09;;;;;;;7.90;6.50;;;;;;;19.99;54.78;99661.81;107838;1265;71280;-83
2023/05/27 00:36:41;;;;;;;8.30;6.50;;;;;;;19.96;54.91;99660.70;107892;1265;72859;-88
2023/05/27 00:39:10;;;;;;;8.20;6.40;;;;;;;19.89;55.08;99657.17;108487;1268;59204;-88
2023/05/27 00:41:40;;;;;;;13.80;7.20;;;;;;;19.86;55.15;99656.63;108563;1265;59497;-86
2023/05/27 00:44:08;;;;;;;7.20;6.60;;;;;;;19.80;55.36;99655.71;108615;1265;74966;-85
2023/05/27 00:46:36;;;;;;;8.40;7.60;;;;;;;19.75;55.51;99653.80;108017;1267;69880;-83
2023/05/27 00:49:03;;;;;;;7.00;6.40;;;;;;;19.72;55.67;99656.50;106072;1265;72041;-85
2023/05/27 00:51:33;;;;;;;7.60;6.80;;;;;;;19.71;55.83;99654.71;107502;1265;59376;-84
2023/05/27 00:54:01;;;;;;;8.00;7.00;;;;;;;19.68;56.00;99651.17;106538;1265;61212;-86
2023/05/27 00:56:29;;;;;;;8.30;7.20;;;;;;;19.64;56.01;99653.35;105849;1265;72773;-84
2023/05/27 00:58:57;;;;;;;8.50;6.90;;;;;;;19.60;56.22;99652.70;105646;1266;69053;-85
2023/05/27 01:01:26;;;;;;;10.10;7.50;;;;;;;19.57;56.35;99656.73;106184;1265;72762;-85
2023/05/27 01:03:55;;;;;;;7.70;7.00;;;;;;;19.54;56.48;99652.80;106902;1266;60460;-85
2023/05/27 01:07:01;;;;;;;12.00;7.10;;;;;;;19.54;56.67;99656.36;106959;1265;60381;-90
2023/05/27 01:09:35;;;;;;;7.00;6.30;;;;;;;19.52;56.83;99656.13;106781;1272;73934;-86
2023/05/27 01:12:12;;;;;;;7.50;6.80;;;;;;;19.49;56.89;99656.42;108439;1265;68357;-86
2023/05/27 01:14:40;;;;;;;9.30;7.60;;;;;;;19.45;56.94;99651.92;108264;1265;71847;-85
2023/05/27 01:17:09;;;;;;;7.90;7.10;;;;;;;19.42;57.05;99650.44;108364;1265;60029;-86
2023/05/27 01:19:42;;;;;;;7.20;6.60;;;;;;;19.39;57.17;99647.02;106417;1267;59306;-86
2023/05/27 01:22:14;;;;;;;8.40;7.00;;;;;;;19.36;57.27;99646.99;106607;1265;72549;-85
2023/05/27 01:24:43;;;;;;;8.20;7.40;;;;;;;19.33;57.30;99644.70;106449;1265;70584;-83
2023/05/27 01:27:15;;;;;;;8.80;7.90;;;;;;;19.29;57.54;99644.77;106756;1265;71726;-86
2023/05/27 01:29:43;;;;;;;8.20;7.40;;;;;;;19.24;57.73;99643.45;107929;1267;59346;-86
2023/05/27 01:32:27;;;;;;;11.40;7.30;;;;;;;19.22;57.84;99645.86;107558;1267;60293;-87
2023/05/27 01:34:58;;;;;;;10.30;7.50;;;;;;;19.18;57.90;99639.45;108494;1265;72751;-86
2023/05/27 01:37:32;;;;;;;13.40;8.50;;;;;;;19.14;58.06;99639.13;108324;1265;68609;-91
2023/05/27 01:40:00;;;;;;;9.40;7.20;;;;;;;19.12;58.22;99646.02;107624;1270;71079;-80
2023/05/27 01:42:29;;;;;;;8.90;7.90;;;;;;;19.06;58.26;99648.50;106436;1273;60359;-82
2023/05/27 01:44:57;;;;;;;8.10;7.40;;;;;;;19.00;58.36;99645.95;107262;1264;60925;-86
2023/05/27 01:47:25;;;;;;;8.80;7.90;;;;;;;18.97;58.53;99648.98;106031;1270;72232;-81
2023/05/27 01:49:52;;;;;;;9.60;7.30;;;;;;;18.94;58.58;99648.19;106366;1270;68771;-82
2023/05/27 01:52:20;;;;;;;8.50;7.50;;;;;;;18.88;58.89;99647.71;107870;1265;71595;-79
2023/05/27 01:54:48;;;;;;;8.60;7.50;;;;;;;18.82;58.96;99645.17;108345;1265;60579;-79
2023/05/27 01:57:16;;;;;;;9.00;7.50;;;;;;;18.80;59.08;99649.70;107384;1265;60449;-84
2023/05/27 01:59:44;;;;;;;10.80;7.80;;;;;;;18.78;59.29;99647.88;105980;1270;73887;-83
2023/05/27 02:02:11;;;;;;;8.60;7.70;;;;;;;18.75;59.51;99644.38;105707;1264;70348;-83
2023/05/27 02:04:42;;;;;;;8.80;7.70;;;;;;;18.72;59.65;99645.59;105120;1272;72461;-82
2023/05/27 02:07:10;;;;;;;8.50;7.30;;;;;;;18.66;59.82;99643.33;105314;1264;60552;-82
2023/05/27 02:09:38;;;;;;;14.00;7.80;;;;;;;18.61;59.96;99643.64;105829;1264;60923;-84
2023/05/27 02:12:06;;;;;;;7.90;7.20;;;;;;;18.55;60.18;99645.31;105253;1265;73428;-84
2023/05/27 02:14:38;;;;;;;8.20;7.20;;;;;;;18.49;60.24;99647.05;105256;1271;70351;-82
2023/05/27 02:17:06;;;;;;;7.90;7.10;;;;;;;18.41;60.55;99647.76;106502;1265;71821;-85
2023/05/27 02:19:35;;;;;;;13.10;8.20;;;;;;;18.34;60.75;99650.44;105328;1265;60377;-84
2023/05/27 02:22:08;;;;;;;8.70;7.60;;;;;;;18.28;61.00;99657.48;105063;1265;60792;-84
2023/05/27 02:24:36;;;;;;;8.00;7.20;;;;;;;18.22;61.30;99657.30;105022;1266;73869;-82
2023/05/27 02:27:05;;;;;;;12.10;8.40;;;;;;;18.13;61.55;99654.96;105202;1265;71247;-82
2023/05/27 02:29:33;;;;;;;8.80;7.80;;;;;;;18.06;61.81;99652.38;105379;1265;72616;-78
2023/05/27 02:32:00;;;;;;;7.50;6.80;;;;;;;18.04;62.08;99656.77;106469;1265;60500;-80
2023/05/27 02:34:29;;;;;;;10.60;7.70;;;;;;;18.03;62.33;99656.53;106661;1265;61167;-79
2023/05/27 02:36:57;;;;;;;8.30;7.50;;;;;;;18.02;62.53;99655.66;106444;1265;74973;-84
2023/05/27 02:39:27;;;;;;;9.30;8.40;;;;;;;18.02;62.58;99656.38;105678;1265;70084;-80
2023/05/27 02:41:54;;;;;;;10.50;7.60;;;;;;;18.07;62.53;99661.25;105548;1267;71275;-80
2023/05/27 02:44:24;;;;;;;8.90;7.70;;;;;;;18.14;62.61;99665.63;105989;1265;60562;-84
2023/05/27 02:46:51;;;;;;;8.40;7.50;;;;;;;18.19;62.59;99660.70;105512;1265;60526;-81
2023/05/27 02:49:19;;;;;;;10.60;8.20;;;;;;;18.25;62.48;99661.61;106341;1265;74455;-85
2023/05/27 02:51:47;;;;;;;8.80;7.90;;;;;;;18.30;62.43;99658.05;107496;1265;68999;-84
2023/05/27 02:54:15;;;;;;;12.00;8.40;;;;;;;18.36;62.44;99660.09;107288;1269;71444;-85
2023/05/27 02:56:42;;;;;;;9.80;8.20;;;;;;;18.44;62.30;99655.76;106842;1270;60554;-86
2023/05/27 02:59:10;;;;;;;11.20;9.20;;;;;;;18.52;62.15;99654.89;107880;1267;58995;-85
2023/05/27 03:01:44;;;;;;;9.30;8.00;;;;;;;18.60;61.95;99656.32;108628;1265;72673;-86
2023/05/27 03:04:12;;;;;;;8.80;8.00;;;;;;;18.67;61.83;99657.56;108379;1267;68966;-84
2023/05/27 03:06:40;;;;;;;9.70;8.40;;;;;;;18.72;61.78;99653.54;106688;1267;73876;-83
2023/05/27 03:09:09;;;;;;;9.60;8.70;;;;;;;18.78;61.71;99655.62;106936;1267;60435;-84
2023/05/27 03:11:37;;;;;;;9.80;8.60;;;;;;;18.82;61.61;99657.59;106348;1272;60387;-84
2023/05/27 03:14:05;;;;;;;9.40;8.40;;;;;;;18.84;61.60;99657.86;106387;1267;72682;-87
2023/05/27 03:16:33;;;;;;;9.80;8.50;;;;;;;18.84;61.66;99654.79;106089;1267;71147;-88
2023/05/27 03:19:05;;;;;;;9.10;8.30;;;;;;;18.89;61.75;99659.34;106054;1267;73838;-84
2023/05/27 03:21:33;;;;;;;9.80;8.80;;;;;;;18.90;61.66;99659.08;106008;1267;60538;-88
2023/05/27 03:24:02;;;;;;;9.50;8.50;;;;;;;18.90;61.64;99658.54;106420;1267;60550;-84
2023/05/27 03:26:30;;;;;;;8.90;7.70;;;;;;;18.94;61.74;99667.52;106082;1267;72634;-86
2023/05/27 03:28:58;;;;;;;10.20;8.90;;;;;;;18.95;61.83;99666.77;106789;1265;68908;-86
2023/05/27 03:31:28;;;;;;;10.90;8.70;;;;;;;18.95;61.91;99662.33;108615;1267;71625;-87
2023/05/27 03:34:06;;;;;;;11.20;8.10;;;;;;;18.97;62.01;99658.20;108173;1267;60497;-85
2023/05/27 03:36:35;;;;;;;10.40;8.00;;;;;;;19.05;62.09;99663.64;108111;1267;59239;-86
2023/05/27 03:39:04;;;;;;;9.90;8.30;;;;;;;19.09;61.96;99660.93;108463;1266;72668;-85
2023/05/27 03:41:32;;;;;;;12.10;8.70;;;;;;;19.13;61.99;99658.26;108440;1267;68758;-84
2023/05/27 03:44:00;;;;;;;9.80;8.80;;;;;;;19.18;61.98;99656.30;108375;1267;71469;-82
2023/05/27 03:46:28;;;;;;;10.80;9.10;;;;;;;19.24;62.08;99657.02;106768;1268;60494;-82
2023/05/27 03:48:56;;;;;;;11.30;9.40;;;;;;;19.29;62.18;99659.52;106932;1265;59198;-86
2023/05/27 03:51:23;;;;;;;9.80;8.90;;;;;;;19.34;62.15;99661.36;107851;1265;72629;-84
2023/05/27 03:53:55;;;;;;;9.50;8.50;;;;;;;19.36;62.17;99661.70;107725;1266;68758;-85
2023/05/27 03:56:23;;;;;;;9.40;8.60;;;;;;;19.40;62.22;99664.55;107855;1266;70483;-84
2023/05/27 03:58:51;;;;;;;13.30;9.40;;;;;;;19.42;62.25;99660.53;107130;1265;60572;-82
2023/05/27 04:01:20;;;;;;;10.00;9.10;;;;;;;19.47;62.36;99662.80;106833;1266;60520;-85
2023/05/27 04:03:51;;;;;;;10.10;9.20;;;;;;;19.52;62.27;99660.70;107686;1267;73825;-83
2023/05/27 04:06:19;;;;;;;8.90;7.90;;;;;;;19.57;62.46;99662.49;107264;1266;68885;-82
2023/05/27 04:08:47;;;;;;;9.80;8.10;;;;;;;19.62;62.35;99660.14;107332;1267;71618;-80
2023/05/27 04:11:14;;;;;;;11.10;9.00;;;;;;;19.66;62.30;99666.39;107600;1266;60449;-82
2023/05/27 04:13:46;;;;;;;10.40;9.20;;;;;;;19.69;62.39;99671.20;106884;1267;60303;-84
2023/05/27 04:16:15;;;;;;;9.90;8.90;;;;;;;19.72;62.41;99672.96;107285;1266;72656;-90
2023/05/27 04:18:51;;;;;;;12.40;9.00;;;;;;;19.76;62.47;99671.23;108583;1264;68916;-87
2023/05/27 04:21:24;;;;;;;10.30;9.30;;;;;;;19.84;62.59;99676.11;108165;1269;71529;-84
2023/05/27 04:23:56;;;;;;;11.40;10.20;;;;;;;19.94;62.57;99673.09;108332;1264;59512;-88
2023/05/27 04:26:30;;;;;;;10.50;9.50;;;;;;;20.07;62.42;99667.98;108198;1264;60586;-85
2023/05/27 04:28:59;;;;;;;12.90;10.10;;;;;;;20.22;62.20;99676.16;108243;1264;72613;-85
2023/05/27 04:31:30;;;;;;;11.60;10.50;;;;;;;20.29;62.15;99673.64;108164;1265;68966;-86
2023/05/27 04:34:03;;;;;;;11.50;10.30;;;;;;;20.37;62.00;99671.83;108675;1264;71138;-89
2023/05/27 04:36:36;;;;;;;12.10;10.80;;;;;;;20.42;61.84;99672.69;108869;1262;59929;-86
2023/05/27 04:39:11;;;;;;;10.60;9.40;;;;;;;20.46;61.67;99673.53;108051;1263;61249;-88
2023/05/27 04:41:45;;;;;;;12.60;10.30;;;;;;;20.47;61.68;99677.16;108252;1264;72771;-87
2023/05/27 04:44:19;;;;;;;12.20;10.90;;;;;;;20.48;61.73;99678.97;106690;1263;68010;-83
2023/05/27 04:46:48;;;;;;;12.00;10.80;;;;;;;20.47;61.57;99677.98;107532;1265;71610;-86
2023/05/27 04:49:17;;;;;;;11.20;10.20;;;;;;;20.47;61.62;99681.11;107402;1270;60468;-83
2023/05/27 04:51:45;;;;;;;11.40;10.30;;;;;;;20.48;61.64;99685.20;107125;1266;60539;-86
2023/05/27 04:54:13;;;;;;;15.10;11.60;;;;;;;20.51;61.79;99687.14;106986;1262;74111;-87
2023/05/27 04:56:41;;;;;;;13.10;9.80;;;;;;;20.48;61.80;99687.52;108419;1263;68785;-87
2023/05/27 04:59:16;;;;;;;11.60;10.00;;;;;;;20.47;61.86;99687.96;108078;1262;71248;-84
2023/05/27 05:01:59;;;;;;;14.40;10.30;;;;;;;20.47;61.96;99687.27;106341;1267;60059;-88
2023/05/27 05:04:32;;;;;;;12.60;9.20;;;;;;;20.50;62.00;99687.98;106819;1264;61120;-86
2023/05/27 05:07:03;;;;;;;14.70;10.20;;;;;;;20.54;61.90;99687.00;107736;1262;72818;-89
2023/05/27 05:09:37;;;;;;;12.10;10.30;;;;;;;20.61;61.91;99681.79;107892;1262;71229;-87
2023/05/27 05:12:17;;;;;;;10.00;9.10;;;;;;;20.74;61.50;99677.66;107710;1263;72053;-84
2023/05/27 05:14:46;;;;;;;11.40;10.20;;;;;;;20.87;61.06;99678.03;107730;1264;59972;-82
2023/05/27 05:17:13;;;;;;;13.20;10.50;;;;;;;20.94;60.78;99679.77;108597;1262;58801;-84
2023/05/27 05:19:41;;;;;;;10.70;9.70;;;;;;;21.00;60.64;99679.35;107979;1262;72552;-84
2023/05/27 05:22:09;;;;;;;10.90;9.40;;;;;;;21.03;60.43;99681.09;106924;1270;68878;-81
2023/05/27 05:24:36;;;;;;;10.60;9.60;;;;;;;21.04;60.20;99680.60;106422;1267;71581;-83
2023/05/27 05:27:06;;;;;;;12.70;9.20;;;;;;;21.04;60.27;99685.52;106360;1271;59262;-85
2023/05/27 05:29:33;;;;;;;12.20;10.40;;;;;;;21.05;60.11;99684.30;105537;1264;61046;-83
2023/05/27 05:32:03;;;;;;;11.20;10.10;;;;;;;21.07;59.98;99678.83;106133;1268;73925;-83
2023/05/27 05:34:30;;;;;;;11.60;10.40;;;;;;;21.12;60.10;99681.95;107128;1265;70681;-82
2023/05/27 05:36:59;;;;;;;11.30;10.20;;;;;;;21.17;60.02;99685.41;106548;1267;72535;-85
2023/05/27 05:39:26;;;;;;;11.80;10.60;;;;;;;21.25;60.07;99682.38;105458;1269;60529;-82
2023/05/27 05:41:57;;;;;;;10.10;9.20;;;;;;;21.31;59.92;99679.33;105361;1266;60600;-84
2023/05/27 05:44:25;;;;;;;10.60;9.30;;;;;;;21.37;59.75;99681.92;106221;1264;74788;-83
2023/05/27 05:46:54;;;;;;;11.70;9.40;;;;;;;21.46;59.58;99683.26;105772;1264;68069;-81
2023/05/27 05:49:23;;;;;;;11.50;10.40;;;;;;;21.55;59.49;99685.11;105010;1270;71588;-79
2023/05/27 05:51:52;;;;;;;11.00;9.90;;;;;;;21.63;59.34;99688.34;105063;1267;60611;-79
2023/05/27 05:54:20;;;;;;;11.30;10.20;;;;;;;21.71;59.27;99692.73;105023;1273;60433;-80
2023/05/27 05:56:53;;;;;;;10.30;9.10;;;;;;;21.77;59.07;99697.88;105665;1264;71309;-78
2023/05/27 05:59:21;;;;;;;13.60;9.40;;;;;;;21.79;58.91;99696.58;105272;1266;70368;-78
2023/05/27 06:01:49;;;;;;;10.50;9.40;;;;;;;21.87;59.02;99696.11;105190;1263;73139;-80
2023/05/27 06:04:17;;;;;;;16.20;9.40;;;;;;;22.00;58.86;99696.94;105537;1267;60423;-80
2023/05/27 06:06:45;;;;;;;14.20;10.10;;;;;;;22.14;58.68;99700.75;105042;1270;60369;-77
2023/05/27 06:09:39;;;;;;;10.70;9.20;;;;;;;22.33;58.48;99700.16;104953;1265;73891;-75
2023/05/27 06:12:10;;;;;;;9.70;8.80;;;;;;;22.50;58.05;99701.44;105157;1271;68819;-73
2023/05/27 06:14:42;;;;;;;11.60;9.10;;;;;;;22.66;57.81;99707.42;105030;1265;72376;-71
2023/05/27 06:17:12;;;;;;;9.60;8.70;;;;;;;22.78;57.13;99708.67;105139;1270;60455;-73
2023/05/27 06:19:40;;;;;;;12.30;10.00;;;;;;;22.82;56.81;99710.14;105075;1271;60352;-73
2023/05/27 06:22:08;;;;;;;10.00;9.10;;;;;;;22.83;56.73;99716.65;104971;1273;74997;-73
2023/05/27 06:25:14;;;;;;;10.80;9.50;;;;;;;22.80;56.67;99720.40;104594;1276;69591;-74
2023/05/27 06:27:49;;;;;;;12.20;10.60;;;;;;;22.73;56.68;99725.17;104251;1270;71071;-74
2023/05/27 06:30:17;;;;;;;12.80;9.70;;;;;;;22.65;56.37;99727.88;104914;1265;62902;-74
2023/05/27 06:32:45;;;;;;;10.20;9.20;;;;;;;22.55;56.47;99732.83;104828;1264;60561;-74
2023/05/27 06:35:13;;;;;;;10.80;9.90;;;;;;;22.49;56.67;99731.97;104912;1264;73117;-70
2023/05/27 06:37:40;;;;;;;11.50;10.40;;;;;;;22.48;56.68;99731.72;105088;1264;70142;-72
2023/05/27 06:40:09;;;;;;;12.50;10.10;;;;;;;22.49;56.78;99731.11;105007;1265;72560;-71
2023/05/27 06:42:36;;;;;;;10.60;9.70;;;;;;;22.52;56.81;99736.25;104963;1269;60432;-73
2023/05/27 06:45:43;;;;;;;12.70;10.10;;;;;;;22.60;56.80;99731.10;104966;1266;60506;-73
2023/05/27 06:48:37;;;;;;;11.70;9.30;;;;;;;22.66;56.71;99729.35;105183;1268;72694;-72
2023/05/27 06:51:06;;;;;;;11.40;10.40;;;;;;;22.76;56.70;99729.84;105068;1264;72593;-75
2023/05/27 06:53:34;;;;;;;11.90;10.20;;;;;;;22.89;56.52;99730.71;104858;1272;71804;-73
2023/05/27 06:56:09;;;;;;;12.40;10.50;;;;;;;22.99;56.27;99731.06;104951;1264;61310;-72
2023/05/27 06:58:56;;;;;;;11.20;9.50;;;;;;;23.11;56.14;99731.59;105039;1269;60596;-71
2023/05/27 07:01:24;;;;;;;12.20;10.10;;;;;;;23.23;55.91;99727.51;105113;1273;72897;-72
2023/05/27 07:03:55;;;;;;;18.70;10.20;;;;;;;23.34;55.59;99726.29;104999;1267;70500;-71
2023/05/27 07:06:31;;;;;;;11.10;10.00;;;;;;;23.44;55.46;99727.06;104944;1270;72933;-75
2023/05/27 07:08:58;;;;;;;11.70;10.50;;;;;;;23.54;55.40;99727.94;105034;1267;60349;-73
2023/05/27 07:11:31;;;;;;;;;;;;;;;23.63;55.26;99723.75;104879;1265;60426;-72
2023/05/27 07:14:02;;;;;;;11.90;10.70;;;;;;;23.73;55.09;99723.09;104984;1269;73997;-73
2023/05/27 07:16:32;;;;;;;11.10;10.10;;;;;;;23.78;54.60;99725.13;105163;1270;68928;-69
2023/05/27 07:18:59;;;;;;;10.90;9.70;;;;;;;23.84;54.68;99727.73;105181;1266;72090;-69
2023/05/27 07:21:29;;;;;;;11.40;10.30;;;;;;;23.91;54.56;99724.02;104986;1264;60448;-71
2023/05/27 07:23:58;;;;;;;10.80;9.80;;;;;;;24.02;54.35;99722.48;105208;1263;60589;-72
2023/05/27 07:26:32;;;;;;;15.40;10.70;;;;;;;24.15;54.28;99723.68;105330;1268;71727;-72
2023/05/27 07:29:00;;;;;;;12.20;10.00;;;;;;;24.29;54.15;99719.30;105498;1268;69106;-74
2023/05/27 07:31:48;;;;;;;14.50;10.20;;;;;;;24.44;54.00;99723.27;105348;1264;72719;-74
2023/05/27 07:34:16;;;;;;;11.10;10.10;;;;;;;24.58;53.86;99721.66;105557;1264;60534;-73
2023/05/27 07:36:44;;;;;;;11.90;9.70;;;;;;;24.74;53.53;99719.14;105580;1269;60403;-72
2023/05/27 07:39:11;;;;;;;10.40;9.40;;;;;;;24.87;53.52;99715.54;105419;1271;73826;-72
2023/05/27 07:41:39;;;;;;;10.50;9.30;;;;;;;25.04;53.36;99716.65;105501;1267;69050;-72
2023/05/27 07:44:07;;;;;;;10.90;9.60;;;;;;;25.24;52.96;99717.09;105784;1264;71420;-71
2023/05/27 07:46:38;;;;;;;13.60;10.30;;;;;;;25.48;52.55;99708.91;107097;1266;59436;-72
2023/05/27 07:51:52;;;;;;;11.90;9.90;;;;;;;25.93;51.63;99709.41;103620;1286;599406;-72
2023/05/27 07:54:19;;;;;;;10.20;9.20;;;;;;;26.09;50.28;99707.95;105605;1265;59242;-73
2023/05/27 07:56:47;;;;;;;9.30;8.40;;;;;;;26.26;49.00;99706.31;105743;1267;59265;-72
2023/05/27 07:59:14;;;;;;;11.80;9.10;;;;;;;26.43;48.29;99705.39;105711;1273;70840;-70
2023/05/27 08:01:41;;;;;;;10.40;8.50;;;;;;;26.56;47.92;99705.98;105631;1268;70184;-72
2023/05/27 08:04:10;;;;;;;8.60;7.70;;;;;;;26.71;47.05;99696.49;105599;1272;72837;-73
2023/05/27 08:07:20;;;;;;;9.00;8.10;;;;;;;26.86;46.16;99693.67;105206;1273;59640;-72
2023/05/27 08:10:10;;;;;;;8.80;7.90;;;;;;;27.00;45.47;99696.14;106244;1269;59305;-73
2023/05/27 08:12:56;;;;;;;8.90;8.10;;;;;;;27.16;44.95;99694.92;106496;1263;70895;-70
2023/05/27 08:15:38;;;;;;;9.10;8.00;;;;;;;27.31;44.84;99700.34;106924;1270;69129;-71
2023/05/27 08:18:19;;;;;;;8.60;7.80;;;;;;;27.43;44.12;99696.84;106465;1267;71434;-73
2023/05/27 08:21:13;;;;;;;8.90;7.20;;;;;;;27.51;44.23;99699.63;107158;1263;60105;-71
2023/05/27 08:24:00;;;;;;;10.70;7.60;;;;;;;27.59;44.23;99700.14;107394;1264;58907;-70
2023/05/27 08:26:46;;;;;;;8.30;7.40;;;;;;;27.69;43.40;99704.12;108695;1264;71749;-71
2023/05/27 08:29:40;;;;;;;8.20;7.40;;;;;;;27.74;43.11;99703.80;108556;1263;68963;-72
2023/05/27 08:32:30;;;;;;;8.60;7.70;;;;;;;27.80;42.71;99704.38;108117;1264;71663;-72
2023/05/27 08:34:58;;;;;;;9.70;7.70;;;;;;;27.82;42.80;99705.98;107730;1268;59725;-75
2023/05/27 08:37:26;;;;;;;8.70;7.80;;;;;;;27.87;43.09;99701.77;107989;1263;60604;-72
2023/05/27 08:39:57;;;;;;;9.80;7.60;;;;;;;27.94;43.33;99700.76;107428;1264;71826;-72
2023/05/27 08:42:39;;;;;;;8.30;7.20;;;;;;;28.05;43.01;99705.91;105688;1267;68844;-74
2023/05/27 08:45:08;;;;;;;7.80;7.10;;;;;;;28.23;42.38;99705.61;105322;1264;71451;-75
2023/05/27 08:47:40;;;;;;;8.10;7.20;;;;;;;28.39;42.02;99701.91;105351;1269;59613;-77
2023/05/27 08:50:12;;;;;;;6.60;6.10;;;;;;;28.47;41.60;99704.57;105224;1264;59579;-75
2023/05/27 08:52:52;;;;;;;9.10;7.60;;;;;;;28.45;41.44;99698.58;105228;1264;71820;-77
2023/05/27 08:55:21;;;;;;;8.20;7.40;;;;;;;28.52;41.82;99694.11;105280;1267;69386;-75
2023/05/27 08:57:56;;;;;;;8.30;7.40;;;;;;;28.63;41.88;99699.02;105499;1258;72486;-75
2023/05/27 09:00:25;;;;;;;7.60;6.90;;;;;;;28.79;41.75;99697.83;105581;1260;59782;-74
2023/05/27 09:02:58;;;;;;;8.70;7.80;;;;;;;29.02;41.77;99693.68;105635;1261;60078;-74
2023/05/27 09:05:36;;;;;;;8.30;7.60;;;;;;;29.26;41.80;99692.96;105731;1260;71668;-73
2023/05/27 09:08:03;;;;;;;10.10;6.50;;;;;;;29.50;40.73;99692.03;105659;1258;68753;-75
2023/05/27 09:10:38;;;;;;;9.20;6.90;;;;;;;29.70;39.29;99690.88;105645;1257;73134;-71
2023/05/27 09:13:06;;;;;;;10.00;7.50;;;;;;;29.86;39.16;99688.91;105778;1258;60200;-72
2023/05/27 09:15:34;;;;;;;10.90;7.50;;;;;;;30.05;39.04;99687.79;105852;1257;60081;-75
2023/05/27 09:18:02;;;;;;;8.20;7.40;;;;;;;30.23;38.59;99687.98;105739;1257;73109;-73
2023/05/27 09:20:30;;;;;;;7.60;6.90;;;;;;;30.55;38.69;99689.64;105734;1258;72551;-74
2023/05/27 09:22:58;;;;;;;8.00;7.30;;;;;;;31.00;38.20;99684.92;105681;1257;70893;-75
2023/05/27 09:25:27;;;;;;;8.30;7.10;;;;;;;31.49;37.73;99682.86;105716;1258;59687;-74
2023/05/27 09:27:55;;;;;;;7.70;7.00;;;;;;;32.01;37.12;99680.73;105634;1256;60529;-73
2023/05/27 09:30:23;;;;;;;7.60;6.70;;;;;;;32.49;36.34;99676.06;105717;1261;73524;-73
2023/05/27 09:32:50;;;;;;;10.00;7.20;;;;;;;32.82;35.81;99680.23;105784;1262;68599;-73
2023/05/27 09:35:18;;;;;;;8.50;6.90;;;;;;;33.15;35.58;99677.98;105590;1262;71420;-75
2023/05/27 09:37:46;;;;;;;7.70;6.70;;;;;;;33.50;35.09;99672.48;105651;1258;60389;-75
2023/05/27 09:40:17;;;;;;;8.90;7.60;;;;;;;33.80;34.84;99666.09;105633;1257;60104;-76
2023/05/27 09:42:46;;;;;;;9.70;7.10;;;;;;;34.12;34.32;99661.45;105526;1264;73043;-75
2023/05/27 09:45:15;;;;;;;9.60;7.10;;;;;;;34.39;33.96;99664.87;105579;1260;70056;-79
2023/05/27 09:47:51;;;;;;;8.20;6.90;;;;;;;34.71;33.54;99666.67;105760;1264;72647;-76
2023/05/27 09:50:20;;;;;;;9.50;7.50;;;;;;;34.92;32.87;99661.29;105713;1261;59145;-78
2023/05/27 09:52:48;;;;;;;7.60;6.80;;;;;;;34.98;32.70;99654.14;105773;1259;59564;-74
2023/05/27 09:55:35;;;;;;;9.40;6.40;;;;;;;35.04;32.84;99651.14;105634;1261;64155;-72
2023/05/27 09:58:03;;;;;;;7.70;7.00;;;;;;;35.23;32.87;99651.02;105926;1255;60676;-74
2023/05/27 10:00:31;;;;;;;11.70;7.00;;;;;;;35.50;32.48;99639.98;105941;1254;62419;-74
2023/05/27 10:03:00;;;;;;;7.00;6.30;;;;;;;35.76;32.51;99636.27;105971;1257;59726;-76
2023/05/27 10:05:28;;;;;;;8.40;6.20;;;;;;;36.05;32.37;99631.39;105836;1260;62117;-75
2023/05/27 10:07:55;;;;;;;7.20;6.50;;;;;;;36.32;31.92;99631.13;105994;1254;62834;-74
2023/05/27 10:10:26;;;;;;;7.50;6.40;;;;;;;36.43;31.67;99631.40;106158;1253;60092;-77
2023/05/27 10:12:54;;;;;;;7.70;6.50;;;;;;;36.35;31.78;99624.89;105868;1253;63700;-75
2023/05/27 10:15:31;;;;;;;8.10;7.40;;;;;;;36.06;32.02;99620.34;105889;1253;59741;-75
2023/05/27 10:18:03;;;;;;;10.50;7.20;;;;;;;35.52;32.51;99619.98;105857;1253;59715;-79
2023/05/27 10:20:37;;;;;;;7.80;7.10;;;;;;;34.91;32.86;99623.65;105975;1257;63271;-74
2023/05/27 10:23:12;;;;;;;8.00;7.10;;;;;;;34.50;33.37;99621.52;105809;1257;69248;-74
2023/05/27 10:25:44;;;;;;;8.40;7.70;;;;;;;34.20;34.31;99621.88;105848;1257;72492;-75
2023/05/27 10:28:26;;;;;;;9.90;7.90;;;;;;;33.82;35.52;99624.33;106041;1254;60095;-79
2023/05/27 10:31:02;;;;;;;10.80;9.70;;;;;;;33.24;37.12;99625.52;105973;1257;60322;-78
2023/05/27 10:33:33;;;;;;;10.00;8.90;;;;;;;32.64;38.94;99628.27;105943;1258;73091;-76
2023/05/27 10:36:04;;;;;;;9.20;8.20;;;;;;;32.04;40.53;99631.60;106013;1257;69262;-77
2023/05/27 10:38:32;;;;;;;11.00;8.80;;;;;;;31.36;43.05;99631.45;105772;1254;73206;-75
2023/05/27 10:41:03;;;;;;;12.00;8.40;;;;;;;30.69;45.97;99636.46;105873;1259;59740;-77
2023/05/27 10:43:31;;;;;;;9.50;8.60;;;;;;;30.18;47.33;99636.58;106023;1254;60203;-80
2023/05/27 10:46:12;;;;;;;10.50;8.60;;;;;;;29.73;47.85;99635.45;105926;1254;74105;-78
2023/05/27 10:48:40;;;;;;;8.80;8.00;;;;;;;29.26;47.91;99636.82;105996;1251;70005;-78
2023/05/27 10:51:08;;;;;;;9.10;8.20;;;;;;;28.85;48.23;99637.16;105839;1254;73447;-79
2023/05/27 10:53:36;;;;;;;10.10;8.10;;;;;;;28.48;47.62;99638.50;106448;1253;59661;-79
2023/05/27 10:56:04;;;;;;;8.80;6.50;;;;;;;28.22;47.18;99643.83;106007;1257;60322;-77
2023/05/27 10:58:36;;;;;;;7.40;6.70;;;;;;;28.01;46.12;99639.11;106150;1252;73021;-77
2023/05/27 11:01:10;;;;;;;7.60;6.80;;;;;;;27.82;46.16;99637.00;106346;1257;68743;-76
2023/05/27 11:03:44;;;;;;;8.60;7.30;;;;;;;27.70;45.30;99634.25;106811;1252;71427;-76
2023/05/27 11:06:18;;;;;;;8.20;7.40;;;;;;;27.68;45.87;99632.41;105907;1259;59683;-78
2023/05/27 11:08:46;;;;;;;7.90;7.00;;;;;;;27.80;45.47;99624.83;105892;1257;59692;-80
2023/05/27 11:11:13;;;;;;;8.90;8.20;;;;;;;28.02;44.61;99628.52;105805;1251;75061;-77
2023/05/27 11:13:45;;;;;;;8.70;7.80;;;;;;;28.39;43.95;99622.14;105971;1257;69370;-78
2023/05/27 11:16:15;;;;;;;11.30;7.80;;;;;;;28.96;43.32;99618.71;106113;1251;71199;-76
2023/05/27 11:18:47;;;;;;;8.40;7.60;;;;;;;29.61;42.52;99616.29;106105;1257;60984;-79
2023/05/27 11:21:15;;;;;;;11.70;8.10;;;;;;;30.16;41.52;99616.92;106022;1251;59834;-78
2023/05/27 11:23:45;;;;;;;8.40;7.50;;;;;;;30.67;40.83;99613.62;106011;1256;72879;-77
2023/05/27 11:26:16;;;;;;;8.40;7.50;;;;;;;31.42;39.60;99608.41;106210;1257;68837;-74
2023/05/27 11:28:50;;;;;;;18.50;8.00;;;;;;;32.26;38.38;99602.88;105898;1251;71621;-76
2023/05/27 11:31:22;;;;;;;11.50;9.00;;;;;;;32.77;38.63;99618.27;105958;1252;60050;-77
2023/05/27 11:33:50;;;;;;;8.90;8.00;;;;;;;32.83;38.58;99621.30;106007;1251;62194;-76
2023/05/27 11:36:26;;;;;;;8.60;7.30;;;;;;;32.62;37.38;99624.91;105960;1251;72980;-77
2023/05/27 11:38:58;;;;;;;8.90;7.70;;;;;;;32.39;37.43;99623.33;106111;1259;69027;-76
2023/05/27 11:41:28;;;;;;;8.60;7.80;;;;;;;32.23;37.54;99622.59;106540;1254;72449;-78